AAL814 KDTW-KLGA
Flight info
| Callsign | AAL814 |
|---|---|
| Flight time | N/A |
| Altitude | 35000 |
| Route | PAVYL3 ESSBE CXR ETG MIP4 |
| Aircraft | A321/M-SDE3FGHIRWY/LB1 |
Departure
| Time | N/A |
|---|---|
| Airport | Detroit Metropolitan Wayne County Airport (KDTW) |
Arrival
| Time | 2026-05-03 20:51 |
|---|---|
| Airport | LaGuardia Airport (KLGA) |
| Time | Latitude | Longitude | Altitude | Speed | Heading |
|---|---|---|---|---|---|
| 2026-05-03 20:15 | 40.43822 | -74.57494 | 7226 ft | 256 kts | 108° |
| 2026-05-03 20:15 | 40.43407 | -74.55239 | 7089 ft | 253 kts | 94° |
| 2026-05-03 20:15 | 40.43370 | -74.52947 | 6951 ft | 250 kts | 81° |
| 2026-05-03 20:15 | 40.43697 | -74.50736 | 6816 ft | 245 kts | 68° |
| 2026-05-03 20:16 | 40.44263 | -74.48634 | 6687 ft | 244 kts | 65° |
| 2026-05-03 20:16 | 40.44818 | -74.46578 | 6551 ft | 234 kts | 65° |
| 2026-05-03 20:16 | 40.45357 | -74.44570 | 6441 ft | 238 kts | 65° |
| 2026-05-03 20:16 | 40.45918 | -74.42496 | 6291 ft | 242 kts | 65° |
| 2026-05-03 20:17 | 40.46482 | -74.40408 | 6158 ft | 243 kts | 65° |
| 2026-05-03 20:17 | 40.47044 | -74.38319 | 6020 ft | 242 kts | 65° |
| 2026-05-03 20:17 | 40.47597 | -74.36262 | 5887 ft | 242 kts | 65° |
| 2026-05-03 20:17 | 40.48166 | -74.34156 | 5764 ft | 242 kts | 64° |
| 2026-05-03 20:18 | 40.48727 | -74.32074 | 5633 ft | 241 kts | 65° |
| 2026-05-03 20:18 | 40.49283 | -74.29994 | 5498 ft | 241 kts | 65° |
| 2026-05-03 20:18 | 40.49837 | -74.27913 | 5357 ft | 241 kts | 65° |
| 2026-05-03 20:18 | 40.50392 | -74.25835 | 5226 ft | 240 kts | 65° |
| 2026-05-03 20:19 | 40.50944 | -74.23768 | 5096 ft | 240 kts | 65° |
| 2026-05-03 20:19 | 40.51496 | -74.21704 | 4964 ft | 239 kts | 65° |
| 2026-05-03 20:19 | 40.52048 | -74.19643 | 4834 ft | 240 kts | 65° |
| 2026-05-03 20:19 | 40.52599 | -74.17576 | 4703 ft | 239 kts | 65° |
| 2026-05-03 20:20 | 40.52963 | -74.16208 | 4613 ft | 240 kts | 65° |
| 2026-05-03 20:20 | 40.53512 | -74.14140 | 4480 ft | 239 kts | 65° |
| 2026-05-03 20:20 | 40.54058 | -74.12079 | 4353 ft | 238 kts | 65° |
| 2026-05-03 20:20 | 40.54603 | -74.10028 | 4219 ft | 237 kts | 65° |
| 2026-05-03 20:21 | 40.55188 | -74.08064 | 4074 ft | 223 kts | 56° |
| 2026-05-03 20:21 | 40.55999 | -74.06421 | 3917 ft | 208 kts | 42° |
| 2026-05-03 20:21 | 40.57006 | -74.05108 | 3862 ft | 202 kts | 31° |
| 2026-05-03 20:21 | 40.58154 | -74.04078 | 3753 ft | 199 kts | 24° |
| 2026-05-03 20:22 | 40.59319 | -74.03095 | 3645 ft | 196 kts | 25° |
| 2026-05-03 20:22 | 40.60432 | -74.02143 | 3554 ft | 188 kts | 25° |
| 2026-05-03 20:22 | 40.61530 | -74.01209 | 3447 ft | 188 kts | 25° |
| 2026-05-03 20:22 | 40.62625 | -74.00280 | 3348 ft | 187 kts | 25° |
| 2026-05-03 20:23 | 40.63716 | -73.99355 | 3237 ft | 187 kts | 25° |
| 2026-05-03 20:23 | 40.64809 | -73.98431 | 3135 ft | 186 kts | 25° |
| 2026-05-03 20:23 | 40.65892 | -73.97511 | 3031 ft | 185 kts | 24° |
| 2026-05-03 20:23 | 40.66972 | -73.96587 | 2892 ft | 185 kts | 25° |
| 2026-05-03 20:24 | 40.68022 | -73.95678 | 2748 ft | 184 kts | 25° |
| 2026-05-03 20:24 | 40.69092 | -73.94752 | 2599 ft | 182 kts | 24° |
| 2026-05-03 20:24 | 40.70077 | -73.93658 | 2463 ft | 190 kts | 39° |
| 2026-05-03 20:24 | 40.70969 | -73.92376 | 2338 ft | 189 kts | 39° |
| 2026-05-03 20:25 | 40.71787 | -73.90999 | 2187 ft | 196 kts | 54° |
| 2026-05-03 20:25 | 40.72210 | -73.89254 | 1919 ft | 203 kts | 71° |
| 2026-05-03 20:25 | 40.72511 | -73.87482 | 1636 ft | 190 kts | 71° |
| 2026-05-03 20:25 | 40.72825 | -73.85843 | 1332 ft | 177 kts | 61° |
| 2026-05-03 20:26 | 40.73464 | -73.84553 | 1081 ft | 162 kts | 34° |
| 2026-05-03 20:26 | 40.74359 | -73.83750 | 1071 ft | 153 kts | 14° |
| 2026-05-03 20:26 | 40.75342 | -73.83537 | 886 ft | 142 kts | 349° |
| 2026-05-03 20:26 | 40.76254 | -73.83946 | 576 ft | 139 kts | 319° |
| 2026-05-03 20:27 | 40.76837 | -73.84941 | 226 ft | 139 kts | 299° |
| 2026-05-03 20:27 | 40.77346 | -73.86013 | 43 ft | 137 kts | 303° |
| 2026-05-03 20:27 | 40.77832 | -73.87017 | 152 ft | 136 kts | 303° |
| 2026-05-03 20:27 | 40.78392 | -73.88186 | 635 ft | 166 kts | 302° |
| 2026-05-03 20:28 | 40.79082 | -73.89501 | 1311 ft | 182 kts | 309° |
| 2026-05-03 20:28 | 40.80052 | -73.90549 | 2008 ft | 181 kts | 328° |
| 2026-05-03 20:28 | 40.81225 | -73.91215 | 2570 ft | 185 kts | 334° |
| 2026-05-03 20:28 | 40.82396 | -73.91815 | 2909 ft | 176 kts | 334° |
| 2026-05-03 20:29 | 40.83516 | -73.92412 | 3164 ft | 172 kts | 333° |
| 2026-05-03 20:29 | 40.84627 | -73.93024 | 3254 ft | 177 kts | 333° |
| 2026-05-03 20:29 | 40.85845 | -73.93482 | 3264 ft | 191 kts | 351° |
| 2026-05-03 20:29 | 40.87198 | -73.93160 | 3257 ft | 208 kts | 15° |
| 2026-05-03 20:30 | 40.88446 | -73.92025 | 3137 ft | 229 kts | 38° |
| 2026-05-03 20:30 | 40.89445 | -73.90336 | 3174 ft | 232 kts | 47° |
| 2026-05-03 20:30 | 40.90396 | -73.88617 | 3067 ft | 232 kts | 47° |
| 2026-05-03 20:30 | 40.91311 | -73.86840 | 2994 ft | 238 kts | 58° |
| 2026-05-03 20:31 | 40.91603 | -73.84597 | 3003 ft | 258 kts | 94° |
| 2026-05-03 20:31 | 40.91178 | -73.82282 | 2991 ft | 260 kts | 103° |
| 2026-05-03 20:31 | 40.90713 | -73.79979 | 2984 ft | 259 kts | 102° |
| 2026-05-03 20:31 | 40.90251 | -73.77670 | 2986 ft | 260 kts | 102° |
| 2026-05-03 20:32 | 40.89795 | -73.75367 | 2976 ft | 258 kts | 102° |
| 2026-05-03 20:32 | 40.89351 | -73.73107 | 2978 ft | 258 kts | 102° |
| 2026-05-03 20:32 | 40.88903 | -73.70815 | 2977 ft | 258 kts | 102° |
| 2026-05-03 20:32 | 40.88442 | -73.68517 | 2979 ft | 259 kts | 107° |
| 2026-05-03 20:33 | 40.87480 | -73.66535 | 2980 ft | 258 kts | 141° |
| 2026-05-03 20:33 | 40.85908 | -73.65523 | 2990 ft | 250 kts | 175° |
| 2026-05-03 20:33 | 40.84229 | -73.65685 | 2992 ft | 238 kts | 206° |
| 2026-05-03 20:33 | 40.82844 | -73.66765 | 3001 ft | 229 kts | 223° |
| 2026-05-03 20:34 | 40.81588 | -73.67969 | 2982 ft | 219 kts | 223° |
| 2026-05-03 20:34 | 40.80368 | -73.69138 | 2990 ft | 215 kts | 223° |
| 2026-05-03 20:34 | 40.79179 | -73.70283 | 2995 ft | 214 kts | 224° |
| 2026-05-03 20:34 | 40.77975 | -73.71445 | 2995 ft | 214 kts | 223° |
| 2026-05-03 20:35 | 40.76772 | -73.72602 | 2992 ft | 214 kts | 223° |
| 2026-05-03 20:35 | 40.75569 | -73.73759 | 2995 ft | 215 kts | 223° |
| 2026-05-03 20:35 | 40.74551 | -73.75124 | 2993 ft | 205 kts | 245° |
| 2026-05-03 20:35 | 40.74081 | -73.76829 | 2994 ft | 194 kts | 268° |
| 2026-05-03 20:36 | 40.74159 | -73.78570 | 2996 ft | 190 kts | 288° |
| 2026-05-03 20:36 | 40.74725 | -73.80119 | 2995 ft | 188 kts | 306° |
| 2026-05-03 20:36 | 40.75486 | -73.81519 | 2998 ft | 188 kts | 305° |
| 2026-05-03 20:36 | 40.76240 | -73.82925 | 2995 ft | 188 kts | 305° |
| 2026-05-03 20:37 | 40.76992 | -73.84333 | 2994 ft | 188 kts | 305° |
| 2026-05-03 20:37 | 40.77704 | -73.85778 | 2990 ft | 188 kts | 297° |
| 2026-05-03 20:37 | 40.78120 | -73.87415 | 2994 ft | 190 kts | 283° |
| 2026-05-03 20:37 | 40.78177 | -73.89166 | 2997 ft | 193 kts | 269° |
| 2026-05-03 20:38 | 40.78036 | -73.90935 | 2990 ft | 194 kts | 269° |
| 2026-05-03 20:38 | 40.77899 | -73.92710 | 2992 ft | 195 kts | 269° |
| 2026-05-03 20:38 | 40.77764 | -73.94484 | 2993 ft | 195 kts | 269° |
| 2026-05-03 20:38 | 40.77631 | -73.96260 | 2988 ft | 194 kts | 269° |
| 2026-05-03 20:39 | 40.77499 | -73.98030 | 3014 ft | 194 kts | 269° |
| 2026-05-03 20:39 | 40.77364 | -73.99796 | 3012 ft | 194 kts | 269° |
| 2026-05-03 20:39 | 40.77123 | -74.01550 | 3000 ft | 197 kts | 257° |
| 2026-05-03 20:39 | 40.76483 | -74.03171 | 3010 ft | 204 kts | 239° |
| 2026-05-03 20:40 | 40.75440 | -74.04496 | 3015 ft | 214 kts | 220° |
| 2026-05-03 20:40 | 40.74103 | -74.05408 | 3014 ft | 218 kts | 212° |
| 2026-05-03 20:40 | 40.72735 | -74.06268 | 3011 ft | 217 kts | 213° |
| 2026-05-03 20:40 | 40.71373 | -74.07135 | 3012 ft | 217 kts | 213° |
| 2026-05-03 20:41 | 40.70036 | -74.07988 | 3007 ft | 216 kts | 212° |
| 2026-05-03 20:41 | 40.68676 | -74.08857 | 3011 ft | 218 kts | 213° |
| 2026-05-03 20:41 | 40.67314 | -74.09727 | 3012 ft | 217 kts | 213° |
| 2026-05-03 20:41 | 40.65955 | -74.10594 | 3005 ft | 217 kts | 213° |
| 2026-05-03 20:42 | 40.64599 | -74.11458 | 3013 ft | 216 kts | 212° |
| 2026-05-03 20:42 | 40.63246 | -74.12319 | 3019 ft | 216 kts | 213° |
| 2026-05-03 20:42 | 40.61894 | -74.13178 | 3011 ft | 216 kts | 213° |
| 2026-05-03 20:42 | 40.60545 | -74.14038 | 3011 ft | 215 kts | 212° |
| 2026-05-03 20:43 | 40.59200 | -74.14894 | 3008 ft | 215 kts | 213° |
| 2026-05-03 20:43 | 40.57846 | -74.15756 | 3009 ft | 216 kts | 213° |
| 2026-05-03 20:43 | 40.56419 | -74.16402 | 3011 ft | 224 kts | 189° |
| 2026-05-03 20:43 | 40.54883 | -74.15902 | 3016 ft | 237 kts | 149° |
| 2026-05-03 20:44 | 40.53842 | -74.14257 | 3019 ft | 237 kts | 116° |
| 2026-05-03 20:44 | 40.53130 | -74.12311 | 3011 ft | 236 kts | 111° |
| 2026-05-03 20:44 | 40.52874 | -74.10229 | 3019 ft | 229 kts | 79° |
| 2026-05-03 20:44 | 40.53368 | -74.08302 | 3009 ft | 219 kts | 51° |
| 2026-05-03 20:45 | 40.54409 | -74.06926 | 3016 ft | 209 kts | 25° |
| 2026-05-03 20:45 | 40.55640 | -74.05930 | 3015 ft | 208 kts | 24° |
| 2026-05-03 20:45 | 40.56869 | -74.04926 | 3012 ft | 208 kts | 25° |
| 2026-05-03 20:45 | 40.58101 | -74.03916 | 3014 ft | 209 kts | 24° |
| 2026-05-03 20:46 | 40.59329 | -74.02908 | 3021 ft | 208 kts | 24° |
| 2026-05-03 20:46 | 40.60559 | -74.01899 | 3014 ft | 208 kts | 24° |
| 2026-05-03 20:46 | 40.61783 | -74.00894 | 3041 ft | 207 kts | 25° |
| 2026-05-03 20:46 | 40.63003 | -73.99889 | 3019 ft | 207 kts | 25° |
| 2026-05-03 20:47 | 40.64225 | -73.98887 | 3012 ft | 206 kts | 24° |
| 2026-05-03 20:47 | 40.65440 | -73.97891 | 3013 ft | 205 kts | 24° |
| 2026-05-03 20:47 | 40.66653 | -73.96889 | 2964 ft | 207 kts | 25° |
| 2026-05-03 20:47 | 40.67838 | -73.95870 | 2768 ft | 197 kts | 25° |
| 2026-05-03 20:48 | 40.68944 | -73.94897 | 2626 ft | 187 kts | 25° |
| 2026-05-03 20:48 | 40.69957 | -73.93832 | 2465 ft | 190 kts | 39° |
| 2026-05-03 20:48 | 40.70843 | -73.92553 | 2365 ft | 185 kts | 39° |
| 2026-05-03 20:48 | 40.71650 | -73.91285 | 2204 ft | 181 kts | 49° |
| 2026-05-03 20:49 | 40.72114 | -73.89741 | 2061 ft | 184 kts | 70° |
| 2026-05-03 20:49 | 40.72394 | -73.88115 | 1735 ft | 181 kts | 70° |
| 2026-05-03 20:49 | 40.72670 | -73.86516 | 1456 ft | 177 kts | 70° |
| 2026-05-03 20:49 | 40.73141 | -73.85079 | 1191 ft | 167 kts | 46° |
| 2026-05-03 20:50 | 40.73946 | -73.84052 | 940 ft | 157 kts | 24° |
| 2026-05-03 20:50 | 40.74904 | -73.83542 | 714 ft | 147 kts | 2° |
| 2026-05-03 20:50 | 40.75894 | -73.83621 | 497 ft | 141 kts | 339° |
| 2026-05-03 20:50 | 40.76603 | -73.84420 | 306 ft | 137 kts | 302° |
| 2026-05-03 20:51 | 40.77104 | -73.85513 | 88 ft | 138 kts | 303° |
| 2026-05-03 20:51 | 40.77599 | -73.86541 | 27 ft | 118 kts | 304° |
| 2026-05-03 20:51 | 40.77974 | -73.87318 | 15 ft | 71 kts | 302° |
| 2026-05-03 20:51 | 40.78119 | -73.87625 | 12 ft | 27 kts | 301° |
| 2026-05-03 20:52 | 40.78197 | -73.87800 | 13 ft | 14 kts | 295° |
| 2026-05-03 20:52 | 40.78177 | -73.87865 | 14 ft | 11 kts | 193° |
| 2026-05-03 20:52 | 40.78097 | -73.87809 | 13 ft | 15 kts | 125° |
| 2026-05-03 20:52 | 40.78039 | -73.87688 | 15 ft | 11 kts | 122° |
| 2026-05-03 20:53 | 40.78023 | -73.87655 | 15 ft | 0 kts | 122° |
| 2026-05-03 20:53 | 40.78022 | -73.87653 | 15 ft | 1 kts | 122° |
| 2026-05-03 20:53 | 40.78014 | -73.87635 | 15 ft | 3 kts | 122° |
| 2026-05-03 20:53 | 40.77996 | -73.87596 | 15 ft | 8 kts | 122° |
| 2026-05-03 20:54 | 40.77961 | -73.87522 | 16 ft | 12 kts | 122° |
| 2026-05-03 20:54 | 40.77910 | -73.87429 | 15 ft | 6 kts | 120° |
| 2026-05-03 20:54 | 40.77879 | -73.87355 | 14 ft | 12 kts | 120° |
| 2026-05-03 20:55 | 40.77833 | -73.87255 | 13 ft | 14 kts | 124° |
| 2026-05-03 20:55 | 40.77779 | -73.87145 | 13 ft | 15 kts | 122° |
| 2026-05-03 20:55 | 40.77722 | -73.87026 | 13 ft | 13 kts | 122° |
| 2026-05-03 20:55 | 40.77677 | -73.86996 | 13 ft | 8 kts | 191° |
| 2026-05-03 20:56 | 40.77631 | -73.86969 | 13 ft | 9 kts | 126° |
| 2026-05-03 20:56 | 40.77588 | -73.86880 | 13 ft | 13 kts | 122° |
| 2026-05-03 20:56 | 40.77536 | -73.86776 | 13 ft | 15 kts | 130° |
| 2026-05-03 20:56 | 40.77472 | -73.86661 | 12 ft | 16 kts | 121° |
| 2026-05-03 20:57 | 40.77412 | -73.86535 | 13 ft | 16 kts | 122° |
| 2026-05-03 20:57 | 40.77353 | -73.86412 | 12 ft | 11 kts | 129° |
| 2026-05-03 20:57 | 40.77307 | -73.86393 | 17 ft | 4 kts | 179° |
| 2026-05-03 20:57 | 40.77297 | -73.86394 | 18 ft | 0 kts | 182° |
| 2026-05-03 20:58 | 40.77296 | -73.86394 | 18 ft | 3 kts | 183° |
| 2026-05-03 20:58 | 40.77240 | -73.86403 | 20 ft | 10 kts | 187° |
| 2026-05-03 20:58 | 40.77170 | -73.86408 | 20 ft | 8 kts | 160° |
| 2026-05-03 20:58 | 40.77145 | -73.86376 | 20 ft | 3 kts | 132° |
| 2026-05-03 20:59 | 40.77141 | -73.86371 | 22 ft | 0 kts | 132° |